createdAt,value
2023-02-03T00:00:17.849Z,0.52
2023-02-03T00:01:17.818Z,0.52
2023-02-03T00:02:17.845Z,0.53
2023-02-03T00:03:17.843Z,0.52
2023-02-03T00:04:17.769Z,0.51
2023-02-03T00:05:17.731Z,0.52
2023-02-03T00:06:17.708Z,0.52
2023-02-03T00:07:17.703Z,0.53
2023-02-03T00:08:17.656Z,0.52
2023-02-03T00:30:17.080Z,0.52
2023-02-03T00:31:17.188Z,0.52
2023-02-03T00:32:17.173Z,0.51
2023-02-03T00:33:17.016Z,0.51
2023-02-03T00:34:16.997Z,0.52
2023-02-03T00:35:16.979Z,0.52
2023-02-03T00:36:16.954Z,0.52
2023-02-03T00:37:16.939Z,0.51
2023-02-03T00:38:16.917Z,0.51
2023-02-03T00:39:16.895Z,0.51
2023-02-03T00:40:16.876Z,0.51
2023-02-03T00:41:16.863Z,0.51
2023-02-03T00:42:16.920Z,0.51
2023-02-03T00:43:16.816Z,0.51
2023-02-03T00:44:16.806Z,0.50
2023-02-03T00:45:16.783Z,0.50
2023-02-03T00:46:16.875Z,0.50
2023-02-03T00:47:16.744Z,0.51
2023-02-03T00:48:16.725Z,0.52
2023-02-03T00:49:16.741Z,0.50
2023-02-03T00:50:17.105Z,0.51
2023-02-03T00:51:17.590Z,0.51
2023-02-03T00:52:16.666Z,0.50
2023-02-03T00:53:16.632Z,0.51
2023-02-03T00:54:16.628Z,0.50
2023-02-03T00:55:16.631Z,0.50
2023-02-03T00:56:16.600Z,0.51
2023-02-03T00:57:16.587Z,0.51
2023-02-03T00:58:16.625Z,0.52
2023-02-03T00:59:16.540Z,0.51
2023-02-03T01:00:16.545Z,0.51
2023-02-03T01:01:16.569Z,0.52
2023-02-03T01:02:16.528Z,0.52
2023-02-03T01:03:16.580Z,0.52
2023-02-03T01:04:16.478Z,0.52
2023-02-03T01:05:16.484Z,0.51
2023-02-03T01:06:16.453Z,0.51
2023-02-03T01:07:16.434Z,0.51
2023-02-03T01:08:16.451Z,0.52
2023-02-03T01:09:16.396Z,0.51
2023-02-03T01:10:16.394Z,0.51
2023-02-03T01:11:16.374Z,0.51
2023-02-03T01:12:16.344Z,0.51
2023-02-03T01:13:16.329Z,0.51
2023-02-03T01:14:16.310Z,0.50
2023-02-03T01:15:16.365Z,0.52
2023-02-03T01:16:16.358Z,0.52
2023-02-03T01:17:16.243Z,0.51
2023-02-03T01:18:16.233Z,0.51
2023-02-03T01:19:16.205Z,0.52
2023-02-03T01:20:16.184Z,0.51
2023-02-03T01:21:16.161Z,0.51
2023-02-03T01:22:16.149Z,0.51
2023-02-03T01:23:16.135Z,0.52
2023-02-03T01:24:16.112Z,0.50
2023-02-03T01:25:16.086Z,0.51
2023-02-03T01:26:16.061Z,0.51
2023-02-03T01:27:16.051Z,0.51
2023-02-03T01:28:16.173Z,0.52
2023-02-03T01:29:16.021Z,0.51
2023-02-03T01:30:15.995Z,0.51
2023-02-03T01:31:16.175Z,0.51
2023-02-03T01:32:16.677Z,0.50
2023-02-03T01:33:15.950Z,0.51
2023-02-03T01:34:15.933Z,0.51
2023-02-03T01:35:15.936Z,0.51
2023-02-03T01:36:15.901Z,0.51
2023-02-03T01:37:15.901Z,0.52
2023-02-03T01:38:15.887Z,0.51
2023-02-03T01:39:15.875Z,0.50
2023-02-03T01:40:15.852Z,0.51
2023-02-03T01:41:15.850Z,0.50
2023-02-03T01:42:15.844Z,0.51
2023-02-03T01:55:15.704Z,0.51
2023-02-03T01:57:15.649Z,0.51
2023-02-03T01:58:15.717Z,0.50
2023-02-03T01:59:15.673Z,0.52
2023-02-03T02:00:15.634Z,0.51
2023-02-03T02:01:17.505Z,0.52
2023-02-03T02:02:15.638Z,0.52
2023-02-03T02:03:15.491Z,0.52
2023-02-03T02:04:15.426Z,0.51
2023-02-03T02:05:15.396Z,0.51
2023-02-03T02:06:15.295Z,0.51
2023-02-03T02:07:16.127Z,0.51
2023-02-03T02:08:15.192Z,0.51
2023-02-03T02:09:15.113Z,0.52
2023-02-03T02:10:15.029Z,0.50
2023-02-03T02:11:14.977Z,0.51
2023-02-03T02:12:14.911Z,0.50
2023-02-03T02:13:14.864Z,0.51
2023-02-03T02:14:14.798Z,0.52
2023-02-03T02:15:14.739Z,0.51
2023-02-03T02:16:14.687Z,0.51
2023-02-03T02:17:14.594Z,0.50
2023-02-03T02:18:14.527Z,0.52
2023-02-03T02:19:14.477Z,0.51
2023-02-03T02:20:14.392Z,0.50
2023-02-03T02:21:14.398Z,0.51
2023-02-03T02:22:14.277Z,0.51
2023-02-03T02:23:14.220Z,0.51
2023-02-03T02:24:14.628Z,0.51
2023-02-03T02:25:14.086Z,0.51
2023-02-03T02:26:14.030Z,0.51
2023-02-03T02:27:14.008Z,0.51
2023-02-03T02:28:13.927Z,0.50
2023-02-03T02:29:13.826Z,0.51
2023-02-03T02:30:13.771Z,0.51
2023-02-03T02:31:13.768Z,0.51
2023-02-03T02:32:13.631Z,0.50
2023-02-03T02:33:14.123Z,0.51
2023-02-03T02:34:13.631Z,0.51
2023-02-03T02:35:13.428Z,0.51
2023-02-03T02:36:13.413Z,0.51
2023-02-03T04:40:06.816Z,0.52
2023-02-03T04:41:06.743Z,0.52
2023-02-03T04:42:06.689Z,0.51
2023-02-03T04:43:06.629Z,0.51
2023-02-03T04:44:06.552Z,0.51
2023-02-03T04:45:06.587Z,0.51
2023-02-03T04:46:06.493Z,0.50
2023-02-03T04:47:06.356Z,0.51
2023-02-03T04:48:06.319Z,0.51
2023-02-03T04:49:06.221Z,0.52
2023-02-03T04:50:06.160Z,0.52
2023-02-03T04:51:06.118Z,0.51
2023-02-03T04:52:06.036Z,0.51
2023-02-03T04:53:05.975Z,0.51
2023-02-03T04:54:05.902Z,0.51
2023-02-03T04:55:05.846Z,0.51
2023-02-03T04:56:05.780Z,0.51
2023-02-03T04:57:05.716Z,0.50
2023-02-03T04:58:05.666Z,0.51
2023-02-03T04:59:05.598Z,0.50
2023-02-03T05:00:05.513Z,0.50
2023-02-03T05:01:05.529Z,0.51
2023-02-03T05:02:05.405Z,0.52
2023-02-03T05:03:05.340Z,0.51
2023-02-03T05:04:05.347Z,0.51
2023-02-03T05:05:05.220Z,0.51
2023-02-03T05:06:05.150Z,0.51
2023-02-03T05:07:05.090Z,0.51
2023-02-03T05:08:05.022Z,0.51
2023-02-03T05:09:04.944Z,0.51
2023-02-03T05:10:04.882Z,0.51
2023-02-03T05:11:06.597Z,0.51
2023-02-03T05:12:04.810Z,0.51
2023-02-03T05:13:04.689Z,0.51
2023-02-03T05:14:04.637Z,0.50
2023-02-03T05:15:04.565Z,0.51
2023-02-03T05:16:04.584Z,0.50
2023-02-03T05:17:04.439Z,0.51
2023-02-03T05:18:04.359Z,0.50
2023-02-03T05:19:04.290Z,0.51
2023-02-03T05:20:04.694Z,0.51
2023-02-03T05:21:04.168Z,0.51
2023-02-03T05:22:04.161Z,0.50
2023-02-03T05:23:04.036Z,0.51
2023-02-03T05:24:03.973Z,0.50
2023-02-03T05:25:03.904Z,0.51
2023-02-03T05:26:03.835Z,0.51
2023-02-03T05:27:03.788Z,0.51
2023-02-03T05:28:03.899Z,0.51
2023-02-03T05:29:03.644Z,0.51
2023-02-03T05:30:03.578Z,0.51
2023-02-03T05:31:03.593Z,0.50
2023-02-03T05:32:03.535Z,0.51
2023-02-03T05:33:03.389Z,0.51
2023-02-03T07:38:56.152Z,2.90
2023-02-03T07:40:55.981Z,2.92
2023-02-03T07:41:55.910Z,3.02
2023-02-03T07:42:56.657Z,3.01
2023-02-03T07:43:55.768Z,3.07
2023-02-03T07:44:55.685Z,3.20
2023-02-03T07:45:55.594Z,3.22
2023-02-03T07:46:55.554Z,3.18
2023-02-03T07:47:55.464Z,3.22
2023-02-03T07:48:56.234Z,3.21
2023-02-03T07:49:55.263Z,3.30
2023-02-03T07:50:55.194Z,3.22
2023-02-03T07:51:55.654Z,3.28
2023-02-03T07:52:55.048Z,3.36
2023-02-03T07:53:54.981Z,3.35
2023-02-03T07:54:54.891Z,3.37
2023-02-03T07:55:54.835Z,3.43
2023-02-03T07:56:54.763Z,3.51
2023-02-03T07:57:54.713Z,3.40
2023-02-03T07:58:54.639Z,3.54
2023-02-03T07:59:55.242Z,3.72
2023-02-03T08:00:54.543Z,3.68
2023-02-03T08:01:54.487Z,3.73
2023-02-03T08:02:54.399Z,3.78
2023-02-03T08:03:55.332Z,3.86
2023-02-03T08:04:54.298Z,3.86
2023-02-03T08:05:54.209Z,3.85
2023-02-03T08:06:54.132Z,3.90
2023-02-03T08:07:54.051Z,3.91
2023-02-03T08:08:53.995Z,3.90
2023-02-03T08:09:53.911Z,3.90
2023-02-03T08:10:54.744Z,3.98
2023-02-03T08:11:53.767Z,4.01
2023-02-03T08:12:53.685Z,4.06
2023-02-03T08:13:53.614Z,4.08
2023-02-03T08:14:53.549Z,4.09
2023-02-03T08:15:53.512Z,4.28
2023-02-03T08:16:53.391Z,5.36
2023-02-03T09:40:48.686Z,0.71
2023-02-03T09:41:48.636Z,0.71
2023-02-03T09:42:48.597Z,0.70
2023-02-03T09:43:48.563Z,0.70
2023-02-03T09:44:49.194Z,0.68
2023-02-03T09:45:48.629Z,0.70
2023-02-03T09:46:48.467Z,0.69
2023-02-03T09:47:48.446Z,0.68
2023-02-03T09:48:49.702Z,0.68
2023-02-03T09:49:48.342Z,0.67
2023-02-03T09:50:48.393Z,0.68
2023-02-03T09:51:48.280Z,0.68
2023-02-03T09:52:48.323Z,0.68
2023-02-03T09:53:48.716Z,0.68
2023-02-03T09:54:48.137Z,0.66
2023-02-03T09:55:48.097Z,0.66
2023-02-03T09:56:48.070Z,0.66
2023-02-03T09:57:48.013Z,0.67
2023-02-03T09:58:47.950Z,0.66
2023-02-03T09:59:47.899Z,0.65
2023-02-03T10:00:47.876Z,0.65
2023-02-03T10:01:47.808Z,0.65
2023-02-03T10:02:47.855Z,0.66
2023-02-03T10:03:47.741Z,0.65
2023-02-03T10:04:47.666Z,0.64
2023-02-03T10:05:47.646Z,0.64
2023-02-03T10:06:47.579Z,0.66
2023-02-03T10:07:49.224Z,0.65
2023-02-03T10:08:48.285Z,0.64
2023-02-03T10:09:47.340Z,0.66
2023-02-03T10:10:47.781Z,0.64
2023-02-03T10:11:48.257Z,0.64
2023-02-03T10:12:47.826Z,0.64
2023-02-03T10:13:47.041Z,0.64
2023-02-03T10:14:46.953Z,0.64
2023-02-03T10:15:46.895Z,0.64
2023-02-03T10:16:46.923Z,0.63
2023-02-03T10:17:46.783Z,0.63
2023-02-03T10:18:46.726Z,0.63
2023-02-03T10:19:46.734Z,0.62
2023-02-03T10:20:46.632Z,0.64
2023-02-03T10:21:46.608Z,0.65
2023-02-03T10:22:46.576Z,0.67
2023-02-03T10:23:46.534Z,0.69
2023-02-03T10:24:46.493Z,0.67
2023-02-03T10:25:47.292Z,0.70
2023-02-03T10:26:46.378Z,0.69
2023-02-03T10:27:46.350Z,0.70
2023-02-03T10:28:46.231Z,0.73
2023-02-03T10:29:46.161Z,0.74
2023-02-03T10:30:46.240Z,0.75
2023-02-03T10:31:46.129Z,0.76
2023-02-03T10:32:45.922Z,0.77
2023-02-03T10:33:45.906Z,0.79
2023-02-03T10:34:46.303Z,0.79
2023-02-03T10:35:45.697Z,0.83
2023-02-03T10:36:45.614Z,0.83
2023-02-03T10:37:45.536Z,0.85
2023-02-03T10:38:45.450Z,0.85
2023-02-03T10:39:45.339Z,0.86
2023-02-03T10:40:45.286Z,0.86
2023-02-03T10:41:45.149Z,0.88
2023-02-03T10:42:45.727Z,0.90
2023-02-03T10:43:44.981Z,0.90
2023-02-03T10:44:44.892Z,0.94
2023-02-03T10:45:44.800Z,0.94
2023-02-03T10:46:44.728Z,0.96
2023-02-03T10:47:44.641Z,0.97
2023-02-03T10:48:44.534Z,0.99
2023-02-03T10:49:44.923Z,1.00
2023-02-03T10:50:44.395Z,1.02
2023-02-03T10:51:44.255Z,1.02
2023-02-03T10:52:44.165Z,1.03
2023-02-03T10:53:44.056Z,1.04
2023-02-03T10:54:44.807Z,1.07
2023-02-03T10:55:43.899Z,1.06
2023-02-03T10:56:43.769Z,1.06
2023-02-03T10:57:45.261Z,1.09
2023-02-03T10:58:43.585Z,1.10
2023-02-03T10:59:43.478Z,1.10
2023-02-03T11:00:43.434Z,1.12
2023-02-03T11:26:41.731Z,1.70
2023-02-03T11:38:40.671Z,2.38
2023-02-03T11:39:40.549Z,2.42
2023-02-03T11:40:40.496Z,2.51
2023-02-03T11:41:40.429Z,2.53
2023-02-03T11:42:40.407Z,2.55
2023-02-03T11:43:40.306Z,2.63
2023-02-03T11:44:40.821Z,2.63
2023-02-03T11:45:40.147Z,2.72
2023-02-03T11:46:40.159Z,2.87
2023-02-03T11:47:40.029Z,2.80
2023-02-03T11:48:39.968Z,2.85
2023-02-03T11:49:39.853Z,2.85
2023-02-03T11:50:39.791Z,2.91
2023-02-03T11:51:39.713Z,2.91
2023-02-03T11:52:39.636Z,2.98
2023-02-03T11:53:51.261Z,3.05
2023-02-03T11:54:40.440Z,3.06
2023-02-03T11:55:39.360Z,3.06
2023-02-03T11:56:39.215Z,3.07
2023-02-03T11:57:39.104Z,3.15
2023-02-03T11:58:39.021Z,3.25
2023-02-03T11:59:38.878Z,3.23
2023-02-03T12:00:38.756Z,3.32
2023-02-03T12:01:38.637Z,3.32
2023-02-03T12:02:38.695Z,3.28
2023-02-03T12:03:38.431Z,3.29
2023-02-03T12:04:38.476Z,3.19
2023-02-03T12:05:38.274Z,3.12
2023-02-03T12:06:38.826Z,3.08
2023-02-03T12:07:38.185Z,3.03
2023-02-03T12:08:38.116Z,2.97
2023-02-03T12:09:38.194Z,2.95
2023-02-03T12:10:38.036Z,2.83
2023-02-03T12:11:37.960Z,2.78
2023-02-03T12:12:37.907Z,2.72
2023-02-03T12:13:37.847Z,2.72
2023-02-03T12:14:37.769Z,2.67
2023-02-03T12:15:37.708Z,2.66
2023-02-03T12:16:37.741Z,2.66
2023-02-03T12:17:37.551Z,2.63
2023-02-03T12:18:37.478Z,2.59
2023-02-03T12:19:37.371Z,2.56
2023-02-03T12:20:37.279Z,2.55
2023-02-03T12:21:37.159Z,2.53
2023-02-03T12:22:37.031Z,2.51
2023-02-03T12:23:36.937Z,2.48
2023-02-03T12:24:36.849Z,2.48
2023-02-03T12:25:36.729Z,2.46
2023-02-03T12:26:37.327Z,2.42
2023-02-03T12:27:36.714Z,2.38
2023-02-03T12:28:36.476Z,2.40
2023-02-03T12:29:36.355Z,2.39
2023-02-03T12:30:36.328Z,2.34
2023-02-03T12:31:36.205Z,2.31
2023-02-03T12:32:36.087Z,2.30
2023-02-03T12:33:36.002Z,2.33
2023-02-03T12:34:35.999Z,2.30
2023-02-03T12:35:35.844Z,2.25
2023-02-03T12:36:35.736Z,2.25
2023-02-03T12:37:35.642Z,2.24
2023-02-03T12:38:35.555Z,2.20
2023-02-03T12:39:35.493Z,2.23
2023-02-03T12:40:35.409Z,2.17
2023-02-03T12:41:35.333Z,2.17
2023-02-03T12:42:35.270Z,2.19
2023-02-03T12:43:35.183Z,2.15
2023-02-03T12:44:35.837Z,2.12
2023-02-03T12:45:35.095Z,2.11
2023-02-03T12:46:34.973Z,2.10
2023-02-03T12:47:34.905Z,2.13
2023-02-03T12:48:34.853Z,2.07
2023-02-03T12:49:34.792Z,2.10
2023-02-03T12:50:34.720Z,2.06
2023-02-03T12:51:34.665Z,2.03
2023-02-03T12:52:34.605Z,2.07
2023-02-03T12:53:34.545Z,2.05
2023-02-03T12:54:34.490Z,2.02
2023-02-03T12:55:34.439Z,2.00
2023-02-03T12:56:34.454Z,1.97
2023-02-03T12:57:34.328Z,1.99
2023-02-03T12:58:34.814Z,1.95
2023-02-03T12:59:34.237Z,1.98
2023-02-03T13:00:34.864Z,1.94
2023-02-03T13:01:34.137Z,1.97
2023-02-03T13:02:34.140Z,1.91
2023-02-03T13:03:34.152Z,1.96
2023-02-03T13:04:34.008Z,1.90
2023-02-03T13:05:34.029Z,1.88
2023-02-03T13:06:33.932Z,1.86
2023-02-03T13:07:33.935Z,1.87
2023-02-03T13:08:33.851Z,1.86
2023-02-03T13:09:33.828Z,1.85
2023-02-03T13:10:33.847Z,1.83
2023-02-03T13:11:33.750Z,1.87
2023-02-03T13:12:33.716Z,1.81
2023-02-03T13:13:33.688Z,1.80
2023-02-03T13:14:33.642Z,1.86
2023-02-03T13:15:33.606Z,1.75
2023-02-03T13:16:34.420Z,1.80
2023-02-03T13:17:33.529Z,1.80
2023-02-03T13:18:33.502Z,1.77
2023-02-03T13:19:33.499Z,1.76
2023-02-03T13:20:33.454Z,1.76
2023-02-03T13:21:33.415Z,1.78
2023-02-03T13:22:33.392Z,1.79
2023-02-03T13:23:33.375Z,1.77
2023-02-03T16:27:23.954Z,0.92
2023-02-03T16:30:23.765Z,0.91
2023-02-03T16:31:23.762Z,0.92
2023-02-03T17:16:20.424Z,0.82
2023-02-03T17:24:19.810Z,0.79
2023-02-03T17:25:19.736Z,0.80
2023-02-03T17:26:19.701Z,0.79
2023-02-03T17:27:19.594Z,0.80
2023-02-03T17:28:19.566Z,0.79
2023-02-03T17:29:19.457Z,0.78
2023-02-03T17:30:19.371Z,0.79
2023-02-03T17:31:19.478Z,0.79
2023-02-03T17:32:19.351Z,0.79
2023-02-03T17:33:19.179Z,0.80
2023-02-03T17:34:19.119Z,0.79
2023-02-03T17:35:19.025Z,0.78
2023-02-03T17:36:19.017Z,0.77
2023-02-03T17:37:18.902Z,0.77
2023-02-03T17:38:18.830Z,0.76
2023-02-03T17:53:49.720Z,0.50
2023-02-03T17:54:49.721Z,0.50
2023-02-03T17:55:49.718Z,0.50
2023-02-03T17:56:49.710Z,0.50
2023-02-03T17:57:49.703Z,0.50
2023-02-03T17:58:49.704Z,0.50
2023-02-03T17:59:49.711Z,0.50
2023-02-03T18:00:49.813Z,0.50
2023-02-03T18:01:49.742Z,0.50
2023-02-03T18:02:49.729Z,0.50
2023-02-03T18:03:49.789Z,0.51
2023-02-03T18:04:49.708Z,0.50
2023-02-03T18:05:49.799Z,0.51
2023-02-03T18:06:49.718Z,0.51
2023-02-03T18:07:50.064Z,0.51
2023-02-03T18:08:50.178Z,0.50
2023-02-03T18:09:49.721Z,0.51
2023-02-03T18:10:49.724Z,0.50
2023-02-03T18:11:49.732Z,0.52
2023-02-03T18:12:49.718Z,0.51
2023-02-03T18:13:49.726Z,0.50
2023-02-03T18:14:49.723Z,0.52
2023-02-03T18:15:49.714Z,0.50
2023-02-03T18:16:49.753Z,0.51
2023-02-03T18:17:49.714Z,0.51
2023-02-03T18:18:49.714Z,0.50
2023-02-03T18:19:55.846Z,0.51
2023-02-03T18:20:50.700Z,0.51
2023-02-03T18:21:49.700Z,0.51
2023-02-03T18:22:49.713Z,0.51
2023-02-03T18:23:49.704Z,0.50
2023-02-03T18:24:49.704Z,0.51
2023-02-03T18:25:49.698Z,0.51
2023-02-03T18:26:49.701Z,0.51
2023-02-03T18:27:50.742Z,0.51
2023-02-03T18:28:49.681Z,0.51
2023-02-03T18:29:49.713Z,0.51
2023-02-03T18:30:49.810Z,0.50
2023-02-03T18:31:49.694Z,0.51
2023-02-03T18:32:49.688Z,0.50
2023-02-03T18:33:49.685Z,0.51
2023-02-03T18:34:49.712Z,0.50
2023-02-03T18:35:49.684Z,0.50
2023-02-03T18:36:49.822Z,0.51
2023-02-03T18:37:49.689Z,0.52
2023-02-03T18:38:49.722Z,0.50
2023-02-03T18:39:49.706Z,0.52
2023-02-03T18:40:49.717Z,0.51
2023-02-03T18:41:49.741Z,0.51
2023-02-03T18:42:49.786Z,0.51
2023-02-03T18:43:49.825Z,0.52
2023-02-03T18:44:49.863Z,0.52
2023-02-03T18:45:49.994Z,0.52
2023-02-03T18:46:49.956Z,0.52
2023-02-03T18:47:49.996Z,0.51
2023-02-03T18:48:50.032Z,0.51
2023-02-03T18:49:50.070Z,0.52
2023-02-03T18:50:50.126Z,0.51
2023-02-03T18:51:50.171Z,0.51
2023-02-03T18:52:50.195Z,0.51
2023-02-03T18:53:50.227Z,0.51
2023-02-03T18:54:50.283Z,0.50
2023-02-03T18:55:50.310Z,0.51
2023-02-03T18:56:50.361Z,0.51
2023-02-03T18:57:50.391Z,0.51
2023-02-03T18:58:50.498Z,0.52
2023-02-03T18:59:50.460Z,0.51
2023-02-03T19:00:50.901Z,0.51
2023-02-03T19:01:50.547Z,0.51
2023-02-03T19:02:50.663Z,0.52
2023-02-03T19:03:50.639Z,0.51
2023-02-03T19:04:50.648Z,0.51
2023-02-03T19:05:50.696Z,0.50
2023-02-03T19:06:50.735Z,0.52
2023-02-03T19:07:50.774Z,0.51
2023-02-03T19:08:50.814Z,0.51
2023-02-03T19:09:50.859Z,0.50
2023-02-03T19:10:50.989Z,0.51
2023-02-03T19:11:50.933Z,0.51
2023-02-03T19:12:50.990Z,0.51
2023-02-03T19:13:51.058Z,0.52
2023-02-03T19:14:51.058Z,0.51
2023-02-03T19:15:51.149Z,0.51
2023-02-03T19:16:51.159Z,0.53
2023-02-03T19:17:51.176Z,0.51
2023-02-03T19:18:51.214Z,0.51
2023-02-03T19:19:51.261Z,0.51
2023-02-03T19:20:51.313Z,0.51
2023-02-03T19:21:51.354Z,0.51
2023-02-03T19:22:51.429Z,0.52
2023-02-03T19:23:51.435Z,0.51
2023-02-03T19:24:52.404Z,0.50
2023-02-03T19:25:51.513Z,0.52
2023-02-03T19:26:51.561Z,0.52
2023-02-03T19:27:51.633Z,0.51
2023-02-03T19:28:51.644Z,0.51
2023-02-03T19:29:51.710Z,0.52
2023-02-03T19:30:57.473Z,0.51
2023-02-03T19:31:52.799Z,0.51
2023-02-03T19:32:51.763Z,0.51
2023-02-03T19:33:51.750Z,0.51
2023-02-03T19:34:51.765Z,0.51
2023-02-03T19:35:51.820Z,0.51
2023-02-03T19:36:52.399Z,0.51
2023-02-03T19:37:51.767Z,0.50
2023-02-03T19:38:51.763Z,0.51
2023-02-03T19:39:51.776Z,0.51
2023-02-03T19:40:51.802Z,0.51
2023-02-03T19:41:51.827Z,0.51
2023-02-03T19:42:51.855Z,0.50
2023-02-03T19:43:51.913Z,0.52
2023-02-03T19:44:51.936Z,0.52
2023-02-03T19:45:51.993Z,0.52
2023-02-03T19:46:52.039Z,0.52
2023-02-03T19:47:52.064Z,0.51
2023-02-03T19:48:52.169Z,0.52
2023-02-03T19:49:52.244Z,0.51
2023-02-03T19:50:52.205Z,0.51
2023-02-03T19:51:52.266Z,0.52
2023-02-03T19:52:52.364Z,0.51
2023-02-03T19:53:53.707Z,0.51
2023-02-03T19:54:52.482Z,0.50
2023-02-03T19:55:52.442Z,0.50
2023-02-03T19:56:52.549Z,0.50
2023-02-03T19:57:52.545Z,0.51
2023-02-03T19:58:52.602Z,0.52
2023-02-03T19:59:53.434Z,0.51
2023-02-03T20:00:52.690Z,0.52
2023-02-03T20:01:52.805Z,0.51
2023-02-03T20:02:52.787Z,0.50
2023-02-03T20:03:52.836Z,0.51
2023-02-03T20:04:52.953Z,0.52
2023-02-03T20:05:52.939Z,0.52
2023-02-03T20:06:52.956Z,0.50
2023-02-03T20:07:53.013Z,0.52
2023-02-03T20:08:53.065Z,0.51
2023-02-03T20:09:53.092Z,0.52
2023-02-03T20:10:53.185Z,0.51
2023-02-03T20:11:53.197Z,0.52
2023-02-03T20:12:53.249Z,0.52
2023-02-03T20:13:53.278Z,0.51
2023-02-03T20:14:53.336Z,0.51
2023-02-03T20:15:53.400Z,0.52
2023-02-03T20:16:53.440Z,0.50
2023-02-03T20:17:53.475Z,0.51
2023-02-03T20:18:53.609Z,0.51
2023-02-03T20:20:53.629Z,0.51
2023-02-03T20:21:53.680Z,0.51
2023-02-03T20:22:53.719Z,0.52
2023-02-03T20:23:53.769Z,0.50
2023-02-03T20:24:53.812Z,0.51
2023-02-03T20:25:53.856Z,0.51
2023-02-03T20:26:53.908Z,0.50
2023-02-03T20:27:53.976Z,0.51
2023-02-03T20:28:54.011Z,0.51
2023-02-03T20:29:54.056Z,0.50
2023-02-03T20:30:54.133Z,0.51
2023-02-03T20:31:54.194Z,0.51
2023-02-03T20:32:54.193Z,0.51
2023-02-03T20:33:54.239Z,0.52
2023-02-03T20:34:54.309Z,0.51
2023-02-03T20:35:54.339Z,0.51
2023-02-03T20:36:54.387Z,0.51
2023-02-03T20:37:54.443Z,0.51
2023-02-03T20:38:54.486Z,0.51
2023-02-03T20:39:54.542Z,0.51
2023-02-03T20:40:54.673Z,0.52
2023-02-03T20:41:54.679Z,0.51
2023-02-03T20:44:54.785Z,0.51
2023-02-03T21:44:58.131Z,0.52
2023-02-03T21:45:58.237Z,0.51
2023-02-03T21:46:58.254Z,0.51
2023-02-03T21:47:58.334Z,0.51
2023-02-03T21:48:58.374Z,0.51
2023-02-03T21:49:58.408Z,0.50
2023-02-03T21:50:58.470Z,0.50
2023-02-03T21:51:58.538Z,0.51
2023-02-03T21:52:58.580Z,0.51
2023-02-03T21:53:58.629Z,0.51
2023-02-03T21:54:58.776Z,0.51
2023-02-03T21:55:58.753Z,0.51
2023-02-03T21:56:58.804Z,0.50
2023-02-03T21:57:58.863Z,0.51
2023-02-03T21:58:59.012Z,0.52
2023-02-03T21:59:58.979Z,0.51
2023-02-03T22:00:59.070Z,0.51
2023-02-03T22:01:59.082Z,0.52
2023-02-03T22:02:59.186Z,0.53
2023-02-03T22:03:59.200Z,0.51
2023-02-03T22:04:59.241Z,0.51
2023-02-03T22:05:59.296Z,0.51
2023-02-03T22:06:59.340Z,0.51
2023-02-03T22:07:59.401Z,0.52
2023-02-03T22:08:59.469Z,0.51
2023-02-03T22:09:59.514Z,0.52
2023-02-03T22:10:59.573Z,0.52
2023-02-03T22:12:01.286Z,0.52
2023-02-03T22:12:59.681Z,0.52
2023-02-03T22:13:59.752Z,0.52
2023-02-03T22:14:59.806Z,0.52
2023-02-03T22:15:59.862Z,0.51
2023-02-03T22:17:00.038Z,0.52
2023-02-03T22:17:59.975Z,0.51
2023-02-03T22:19:00.032Z,0.51
2023-02-03T22:20:00.108Z,0.52
2023-02-03T22:21:00.136Z,0.51
2023-02-03T22:22:00.198Z,0.51
2023-02-03T22:23:00.233Z,0.52
2023-02-03T22:24:00.427Z,0.52
2023-02-03T22:25:00.341Z,0.52
2023-02-03T22:26:00.424Z,0.52
2023-02-03T22:27:00.458Z,0.51
2023-02-03T22:28:00.595Z,0.51
2023-02-03T22:29:00.585Z,0.51
2023-02-03T22:30:01.119Z,0.53
2023-02-03T22:31:00.773Z,0.52
2023-02-03T22:32:00.868Z,0.52
2023-02-03T22:33:00.798Z,0.51
2023-02-03T22:34:00.869Z,0.51
2023-02-03T22:35:00.922Z,0.51
2023-02-03T22:36:00.983Z,0.50
2023-02-03T22:37:01.032Z,0.51
2023-02-03T22:38:01.082Z,0.51
2023-02-03T22:39:01.138Z,0.51
2023-02-03T22:40:01.493Z,0.51
2023-02-03T22:41:01.267Z,0.52
2023-02-03T22:42:01.342Z,0.51
2023-02-03T22:43:01.401Z,0.50
2023-02-03T22:44:01.455Z,0.51
2023-02-03T22:45:01.539Z,0.52
2023-02-03T22:47:01.626Z,0.50
2023-02-03T22:48:01.681Z,0.51
2023-02-03T22:49:01.744Z,0.51
2023-02-03T22:50:01.832Z,0.52
2023-02-03T22:51:01.859Z,0.52
2023-02-03T22:52:01.905Z,0.52
2023-02-03T22:53:01.972Z,0.52
2023-02-03T22:54:02.013Z,0.51
2023-02-03T22:55:02.098Z,0.53
2023-02-03T22:56:02.147Z,0.51
2023-02-03T22:57:02.225Z,0.51
2023-02-03T22:58:02.252Z,0.51
2023-02-03T22:59:02.361Z,0.52
2023-02-03T23:00:02.390Z,0.51
2023-02-03T23:01:02.437Z,0.51
2023-02-03T23:02:02.497Z,0.52
2023-02-03T23:03:02.659Z,0.51
2023-02-03T23:04:02.612Z,0.51
2023-02-03T23:05:02.696Z,0.50
2023-02-03T23:06:02.734Z,0.52
2023-02-03T23:07:02.810Z,0.51
2023-02-03T23:08:02.850Z,0.52
2023-02-03T23:09:02.990Z,0.51
2023-02-03T23:11:03.027Z,0.52
2023-02-03T23:12:03.084Z,0.50
2023-02-03T23:13:03.147Z,0.51
2023-02-03T23:14:03.200Z,0.52
2023-02-03T23:15:03.268Z,0.51
2023-02-03T23:17:03.377Z,0.51
2023-02-03T23:18:03.447Z,0.51
